createdAt,value
2022-10-05T05:16:43.164Z,71.80
2022-10-05T05:19:21.058Z,71.38
2022-10-05T05:22:00.219Z,71.47
2022-10-05T05:24:41.341Z,71.48
2022-10-05T05:27:30.527Z,71.48
2022-10-05T05:30:23.215Z,71.69
2022-10-05T05:33:17.953Z,71.64
2022-10-05T05:35:59.610Z,71.84
2022-10-05T05:38:32.952Z,71.81
2022-10-05T05:41:04.034Z,71.57
2022-10-05T05:43:56.083Z,71.28
2022-10-05T05:47:01.912Z,71.95
2022-10-05T05:49:34.753Z,71.90
2022-10-05T05:52:06.296Z,71.95
2022-10-05T05:54:45.885Z,71.79
2022-10-05T05:57:48.843Z,71.65
2022-10-05T06:00:23.672Z,72.35
2022-10-05T06:03:22.645Z,71.72
2022-10-05T06:05:58.304Z,71.99
2022-10-05T06:09:08.429Z,71.57
2022-10-05T06:11:53.787Z,71.55
2022-10-05T06:14:47.963Z,71.52
2022-10-05T06:17:37.985Z,71.95
2022-10-05T06:20:25.689Z,72.29
2022-10-05T06:22:52.906Z,71.77
2022-10-05T06:25:43.670Z,72.25
2022-10-05T06:28:16.258Z,71.90
2022-10-05T06:31:09.379Z,72.22
2022-10-05T06:33:54.741Z,72.52
2022-10-05T06:36:41.152Z,72.03
2022-10-05T06:39:18.154Z,72.08
2022-10-05T06:41:57.193Z,71.67
2022-10-05T06:44:53.754Z,72.12
2022-10-05T06:48:05.211Z,71.98
2022-10-05T06:51:07.117Z,72.34
2022-10-05T06:54:19.683Z,72.37
2022-10-05T06:56:47.117Z,72.13
2022-10-05T06:59:50.217Z,72.34
2022-10-05T07:02:35.860Z,72.16
2022-10-05T07:05:28.850Z,71.74
2022-10-05T07:08:01.359Z,72.09
2022-10-05T07:10:32.276Z,72.10
2022-10-05T07:13:06.893Z,72.42
2022-10-05T07:15:40.260Z,73.10
2022-10-05T07:18:40.805Z,72.99
2022-10-05T07:21:35.942Z,72.76
2022-10-05T07:24:27.389Z,72.64
2022-10-05T07:27:21.431Z,72.46
2022-10-05T07:30:07.575Z,72.19
2022-10-05T07:33:01.393Z,72.34
2022-10-05T07:36:02.678Z,72.58
2022-10-05T07:38:55.028Z,72.56
2022-10-05T07:41:25.220Z,72.16
2022-10-05T07:44:19.788Z,73.06
2022-10-05T07:47:27.467Z,73.77
2022-10-05T07:49:58.993Z,73.67
2022-10-05T07:52:34.675Z,73.16
2022-10-05T07:55:22.346Z,73.59
2022-10-05T07:58:31.916Z,74.26
2022-10-05T08:01:19.328Z,74.30
2022-10-05T08:03:56.654Z,73.54
2022-10-05T08:06:27.346Z,74.22
2022-10-05T08:09:21.913Z,75.13
2022-10-05T08:11:53.616Z,74.85
2022-10-05T09:07:10.998Z,73.48
2022-10-05T09:09:43.877Z,73.26
2022-10-05T09:12:44.099Z,72.93
2022-10-05T09:15:31.445Z,72.16
2022-10-05T09:18:37.723Z,72.58
2022-10-05T09:21:15.915Z,72.05
2022-10-05T12:19:28.738Z,66.53
2022-10-05T12:22:06.897Z,66.36
2022-10-05T12:24:37.201Z,66.38
2022-10-05T12:27:17.177Z,65.33
2022-10-05T12:30:18.596Z,65.54
2022-10-05T12:44:52.955Z,65.88
2022-10-05T12:47:32.959Z,65.61
2022-10-05T13:39:28.589Z,64.83
2022-10-05T13:42:02.079Z,64.74
2022-10-05T13:52:49.463Z,64.71
2022-10-05T13:55:35.222Z,64.57
2022-10-05T13:58:13.038Z,64.72
2022-10-05T14:00:47.245Z,64.44
2022-10-05T14:03:39.579Z,64.43
2022-10-05T14:06:30.913Z,64.17
2022-10-05T14:09:00.937Z,64.48
2022-10-05T14:11:35.058Z,64.46
2022-10-05T14:14:25.565Z,63.95
2022-10-05T15:24:58.357Z,65.13
2022-10-05T15:34:33.061Z,65.00
2022-10-05T15:51:27.962Z,65.29
2022-10-05T15:54:46.306Z,65.07
2022-10-05T15:57:45.464Z,65.18
2022-10-05T16:00:21.051Z,64.81
2022-10-05T16:03:09.700Z,64.91
2022-10-05T16:06:09.727Z,64.60
2022-10-05T16:08:58.643Z,65.05
2022-10-05T16:12:10.289Z,64.85
2022-10-05T16:15:00.217Z,64.83
2022-10-05T16:17:41.692Z,64.77
2022-10-05T16:20:24.212Z,65.06
2022-10-05T16:23:06.625Z,65.16
2022-10-05T16:25:40.801Z,65.05
2022-10-05T16:33:02.830Z,64.93
2022-10-05T16:56:45.782Z,65.87
2022-10-05T16:59:25.662Z,65.89
2022-10-05T17:11:27.050Z,65.73
2022-10-05T17:14:16.680Z,66.08
2022-10-05T17:26:54.992Z,66.21
2022-10-05T17:29:30.694Z,65.98
2022-10-05T17:32:10.143Z,66.39
2022-10-05T17:34:58.455Z,66.34
2022-10-05T17:37:29.150Z,66.42
2022-10-05T17:39:56.754Z,66.42
2022-10-05T17:42:29.874Z,66.46
2022-10-05T17:45:17.464Z,66.71
2022-10-05T17:48:14.720Z,66.43
2022-10-05T17:51:07.224Z,66.62
2022-10-05T17:53:56.826Z,66.84
2022-10-05T17:56:26.894Z,66.85
2022-10-05T17:59:04.683Z,66.88
2022-10-05T18:04:45.561Z,67.14
2022-10-05T18:15:26.024Z,67.32
2022-10-05T18:33:34.781Z,67.34
2022-10-05T18:36:27.591Z,67.44
2022-10-05T18:39:04.530Z,67.33
2022-10-05T18:41:46.868Z,67.34
2022-10-05T18:50:13.079Z,67.47
2022-10-05T18:53:22.639Z,67.55
2022-10-05T18:55:59.190Z,67.68
2022-10-05T18:58:30.914Z,67.51
2022-10-05T19:03:56.145Z,67.51
2022-10-05T19:07:02.845Z,67.52
2022-10-05T19:12:45.055Z,67.67
2022-10-05T19:15:19.401Z,67.56
2022-10-05T19:24:16.349Z,67.50
2022-10-05T19:30:25.466Z,67.66
2022-10-05T19:33:17.807Z,67.60
2022-10-05T19:36:23.753Z,67.43
2022-10-05T19:39:13.972Z,67.90
2022-10-05T19:47:41.533Z,67.67
2022-10-05T23:33:56.506Z,68.37
2022-10-05T23:36:39.789Z,68.57
2022-10-05T23:42:07.949Z,68.51
2022-10-05T23:44:42.995Z,69.02
2022-10-05T23:47:12.948Z,68.55
2022-10-05T23:49:41.541Z,68.83
2022-10-05T23:52:12.859Z,68.75
2022-10-05T23:54:44.684Z,68.41
2022-10-05T23:57:21.774Z,68.01
